sensor_id;sensor_type;location;lat;lon;timestamp;P1;durP1;ratioP1;P2;durP2;ratioP2
34521;SDS011;25561;48.888;8.736;2022-09-01T05:31:40;46.70;;;30.35;;
34521;SDS011;25561;48.888;8.736;2022-09-01T05:34:44;47.47;;;27.30;;
34521;SDS011;25561;48.888;8.736;2022-09-01T05:37:46;39.67;;;24.75;;
34521;SDS011;25561;48.888;8.736;2022-09-01T05:41:07;32.25;;;20.33;;
34521;SDS011;25561;48.888;8.736;2022-09-01T05:44:11;27.65;;;21.35;;
34521;SDS011;25561;48.888;8.736;2022-09-01T05:47:14;24.40;;;18.25;;
34521;SDS011;25561;48.888;8.736;2022-09-01T05:50:21;24.05;;;18.50;;
34521;SDS011;25561;48.888;8.736;2022-09-01T05:53:23;24.10;;;18.23;;
34521;SDS011;25561;48.888;8.736;2022-09-01T05:56:28;29.25;;;17.38;;
34521;SDS011;25561;48.888;8.736;2022-09-01T05:59:31;21.83;;;16.48;;
34521;SDS011;25561;48.888;8.736;2022-09-01T06:02:33;20.17;;;15.32;;
34521;SDS011;25561;48.888;8.736;2022-09-01T06:05:36;18.83;;;13.93;;
34521;SDS011;25561;48.888;8.736;2022-09-01T06:08:38;21.10;;;13.13;;
34521;SDS011;25561;48.888;8.736;2022-09-01T06:11:47;19.65;;;14.55;;
34521;SDS011;25561;48.888;8.736;2022-09-01T06:50:01;22.33;;;17.02;;
34521;SDS011;25561;48.888;8.736;2022-09-01T06:53:04;23.38;;;17.33;;
34521;SDS011;25561;48.888;8.736;2022-09-01T06:56:30;20.67;;;15.60;;
34521;SDS011;25561;48.888;8.736;2022-09-01T06:59:41;19.42;;;13.73;;
34521;SDS011;25561;48.888;8.736;2022-09-01T07:02:44;22.40;;;16.35;;
34521;SDS011;25561;48.888;8.736;2022-09-01T07:05:46;21.40;;;14.98;;
34521;SDS011;25561;48.888;8.736;2022-09-01T07:09:12;20.40;;;14.63;;
34521;SDS011;25561;48.888;8.736;2022-09-01T07:12:33;17.67;;;13.75;;
34521;SDS011;25561;48.888;8.736;2022-09-01T07:15:38;20.85;;;14.00;;
34521;SDS011;25561;48.888;8.736;2022-09-01T07:19:00;20.02;;;13.57;;
34521;SDS011;25561;48.888;8.736;2022-09-01T07:22:03;21.55;;;15.45;;
34521;SDS011;25561;48.888;8.736;2022-09-01T07:25:08;20.40;;;15.30;;
34521;SDS011;25561;48.888;8.736;2022-09-01T07:28:14;20.58;;;12.65;;
34521;SDS011;25561;48.888;8.736;2022-09-01T07:31:20;16.88;;;12.88;;
34521;SDS011;25561;48.888;8.736;2022-09-01T07:34:45;17.35;;;11.82;;
34521;SDS011;25561;48.888;8.736;2022-09-01T07:41:12;14.65;;;11.88;;
34521;SDS011;25561;48.888;8.736;2022-09-01T07:44:33;14.23;;;11.70;;
34521;SDS011;25561;48.888;8.736;2022-09-01T07:47:39;15.30;;;10.65;;
34521;SDS011;25561;48.888;8.736;2022-09-01T07:50:56;13.73;;;10.40;;
34521;SDS011;25561;48.888;8.736;2022-09-01T07:54:18;12.02;;;9.95;;
34521;SDS011;25561;48.888;8.736;2022-09-01T07:57:21;13.05;;;10.48;;
34521;SDS011;25561;48.888;8.736;2022-09-01T08:00:23;16.30;;;12.30;;
34521;SDS011;25561;48.888;8.736;2022-09-01T08:03:30;14.65;;;10.80;;
34521;SDS011;25561;48.888;8.736;2022-09-01T08:06:32;12.15;;;8.50;;
34521;SDS011;25561;48.888;8.736;2022-09-01T08:09:39;12.57;;;9.98;;
34521;SDS011;25561;48.888;8.736;2022-09-01T08:12:44;11.18;;;8.40;;
34521;SDS011;25561;48.888;8.736;2022-09-01T08:15:46;11.10;;;7.32;;
34521;SDS011;25561;48.888;8.736;2022-09-01T08:19:08;12.80;;;9.82;;
34521;SDS011;25561;48.888;8.736;2022-09-01T08:22:16;12.75;;;9.27;;
34521;SDS011;25561;48.888;8.736;2022-09-01T08:25:21;9.73;;;8.00;;
34521;SDS011;25561;48.888;8.736;2022-09-01T08:28:25;12.15;;;8.93;;
34521;SDS011;25561;48.888;8.736;2022-09-01T08:31:27;9.27;;;7.30;;
34521;SDS011;25561;48.888;8.736;2022-09-01T08:37:35;7.72;;;6.18;;
34521;SDS011;25561;48.888;8.736;2022-09-01T08:40:37;5.63;;;4.63;;
34521;SDS011;25561;48.888;8.736;2022-09-01T08:43:48;7.90;;;5.53;;
34521;SDS011;25561;48.888;8.736;2022-09-01T08:47:11;5.63;;;4.97;;
34521;SDS011;25561;48.888;8.736;2022-09-01T08:50:16;5.78;;;4.78;;
34521;SDS011;25561;48.888;8.736;2022-09-01T08:53:22;6.47;;;4.50;;
34521;SDS011;25561;48.888;8.736;2022-09-01T08:56:29;5.20;;;4.35;;
34521;SDS011;25561;48.888;8.736;2022-09-01T08:59:32;8.10;;;5.95;;
34521;SDS011;25561;48.888;8.736;2022-09-01T09:02:50;7.03;;;5.32;;
34521;SDS011;25561;48.888;8.736;2022-09-01T09:06:05;4.88;;;4.35;;
34521;SDS011;25561;48.888;8.736;2022-09-01T09:09:40;6.85;;;3.90;;
34521;SDS011;25561;48.888;8.736;2022-09-01T09:16:09;6.38;;;4.30;;
34521;SDS011;25561;48.888;8.736;2022-09-01T09:19:32;7.40;;;3.85;;
34521;SDS011;25561;48.888;8.736;2022-09-01T09:22:36;7.55;;;4.28;;
34521;SDS011;25561;48.888;8.736;2022-09-01T09:25:40;7.13;;;4.80;;
34521;SDS011;25561;48.888;8.736;2022-09-01T09:28:42;7.68;;;4.72;;
34521;SDS011;25561;48.888;8.736;2022-09-01T09:31:43;9.15;;;4.53;;
34521;SDS011;25561;48.888;8.736;2022-09-01T09:34:50;5.63;;;4.00;;
34521;SDS011;25561;48.888;8.736;2022-09-01T09:37:53;5.13;;;3.60;;
34521;SDS011;25561;48.888;8.736;2022-09-01T09:40:58;7.07;;;4.63;;
34521;SDS011;25561;48.888;8.736;2022-09-01T09:44:25;4.72;;;3.60;;
34521;SDS011;25561;48.888;8.736;2022-09-01T09:47:33;4.65;;;3.65;;
34521;SDS011;25561;48.888;8.736;2022-09-01T09:50:44;4.43;;;3.50;;
34521;SDS011;25561;48.888;8.736;2022-09-01T09:53:47;5.78;;;4.30;;
34521;SDS011;25561;48.888;8.736;2022-09-01T09:57:01;8.57;;;4.32;;
34521;SDS011;25561;48.888;8.736;2022-09-01T10:00:23;6.13;;;4.18;;
34521;SDS011;25561;48.888;8.736;2022-09-01T10:03:44;6.95;;;4.50;;
34521;SDS011;25561;48.888;8.736;2022-09-01T10:06:50;5.55;;;4.57;;
34521;SDS011;25561;48.888;8.736;2022-09-01T10:09:55;6.27;;;4.03;;
34521;SDS011;25561;48.888;8.736;2022-09-01T10:13:01;9.80;;;4.85;;
34521;SDS011;25561;48.888;8.736;2022-09-01T10:16:04;7.20;;;5.40;;
34521;SDS011;25561;48.888;8.736;2022-09-01T10:19:12;6.75;;;5.63;;
34521;SDS011;25561;48.888;8.736;2022-09-01T10:22:16;7.30;;;6.53;;
34521;SDS011;25561;48.888;8.736;2022-09-01T10:25:20;7.85;;;5.15;;
34521;SDS011;25561;48.888;8.736;2022-09-01T10:28:29;7.10;;;5.68;;
34521;SDS011;25561;48.888;8.736;2022-09-01T10:31:34;14.45;;;5.57;;
34521;SDS011;25561;48.888;8.736;2022-09-01T10:34:37;7.93;;;5.47;;
34521;SDS011;25561;48.888;8.736;2022-09-01T10:37:42;7.30;;;5.15;;
34521;SDS011;25561;48.888;8.736;2022-09-01T10:40:45;8.13;;;5.10;;
34521;SDS011;25561;48.888;8.736;2022-09-01T10:43:51;12.93;;;5.25;;
34521;SDS011;25561;48.888;8.736;2022-09-01T10:46:52;6.88;;;4.32;;
34521;SDS011;25561;48.888;8.736;2022-09-01T10:50:03;6.25;;;4.93;;
34521;SDS011;25561;48.888;8.736;2022-09-01T10:53:39;8.82;;;5.50;;
34521;SDS011;25561;48.888;8.736;2022-09-01T10:56:46;5.28;;;4.40;;
34521;SDS011;25561;48.888;8.736;2022-09-01T10:59:53;8.48;;;5.40;;
34521;SDS011;25561;48.888;8.736;2022-09-01T11:09:43;4.63;;;3.75;;
34521;SDS011;25561;48.888;8.736;2022-09-01T11:16:26;5.38;;;4.75;;
34521;SDS011;25561;48.888;8.736;2022-09-01T11:20:26;7.30;;;4.95;;
34521;SDS011;25561;48.888;8.736;2022-09-01T11:23:21;5.55;;;4.57;;
34521;SDS011;25561;48.888;8.736;2022-09-01T11:30:06;7.65;;;5.10;;
34521;SDS011;25561;48.888;8.736;2022-09-01T11:33:02;10.07;;;5.03;;
34521;SDS011;25561;48.888;8.736;2022-09-01T11:36:46;12.32;;;5.28;;
34521;SDS011;25561;48.888;8.736;2022-09-01T11:39:49;8.45;;;4.70;;
34521;SDS011;25561;48.888;8.736;2022-09-01T11:42:54;6.07;;;4.25;;
34521;SDS011;25561;48.888;8.736;2022-09-01T11:46:16;8.13;;;5.97;;
34521;SDS011;25561;48.888;8.736;2022-09-01T11:49:26;6.30;;;5.13;;
34521;SDS011;25561;48.888;8.736;2022-09-01T11:52:33;5.25;;;4.50;;
34521;SDS011;25561;48.888;8.736;2022-09-01T11:55:40;6.22;;;4.15;;
34521;SDS011;25561;48.888;8.736;2022-09-01T11:58:45;8.80;;;4.95;;
34521;SDS011;25561;48.888;8.736;2022-09-01T12:01:47;5.82;;;4.07;;
34521;SDS011;25561;48.888;8.736;2022-09-01T12:04:48;9.80;;;4.05;;
34521;SDS011;25561;48.888;8.736;2022-09-01T12:07:51;6.63;;;4.72;;
34521;SDS011;25561;48.888;8.736;2022-09-01T12:11:10;4.72;;;3.45;;
34521;SDS011;25561;48.888;8.736;2022-09-01T12:14:19;4.72;;;3.90;;
34521;SDS011;25561;48.888;8.736;2022-09-01T12:17:22;4.65;;;3.83;;
34521;SDS011;25561;48.888;8.736;2022-09-01T12:20:28;4.82;;;3.80;;
34521;SDS011;25561;48.888;8.736;2022-09-01T12:23:36;3.90;;;3.20;;
34521;SDS011;25561;48.888;8.736;2022-09-01T12:26:40;4.85;;;3.20;;
34521;SDS011;25561;48.888;8.736;2022-09-01T12:29:42;6.95;;;3.97;;
34521;SDS011;25561;48.888;8.736;2022-09-01T12:32:44;11.85;;;3.05;;
34521;SDS011;25561;48.888;8.736;2022-09-01T12:35:48;7.80;;;3.20;;
34521;SDS011;25561;48.888;8.736;2022-09-01T12:38:50;5.00;;;3.60;;
34521;SDS011;25561;48.888;8.736;2022-09-01T12:42:10;3.70;;;3.00;;
34521;SDS011;25561;48.888;8.736;2022-09-01T12:45:50;5.38;;;3.90;;
34521;SDS011;25561;48.888;8.736;2022-09-01T12:48:44;6.00;;;4.60;;
34521;SDS011;25561;48.888;8.736;2022-09-01T12:51:46;4.53;;;3.92;;
34521;SDS011;25561;48.888;8.736;2022-09-01T12:54:49;5.72;;;4.15;;
34521;SDS011;25561;48.888;8.736;2022-09-01T12:58:09;5.90;;;4.47;;
34521;SDS011;25561;48.888;8.736;2022-09-01T13:01:22;5.28;;;3.75;;
34521;SDS011;25561;48.888;8.736;2022-09-01T13:04:27;4.43;;;3.25;;
34521;SDS011;25561;48.888;8.736;2022-09-01T13:07:32;4.13;;;3.28;;
34521;SDS011;25561;48.888;8.736;2022-09-01T13:10:36;5.35;;;3.63;;
34521;SDS011;25561;48.888;8.736;2022-09-01T13:13:41;4.70;;;2.92;;
34521;SDS011;25561;48.888;8.736;2022-09-01T13:16:43;3.92;;;3.00;;
34521;SDS011;25561;48.888;8.736;2022-09-01T13:19:46;5.15;;;3.38;;
34521;SDS011;25561;48.888;8.736;2022-09-01T13:22:48;4.28;;;2.90;;
34521;SDS011;25561;48.888;8.736;2022-09-01T13:25:50;4.60;;;2.85;;
34521;SDS011;25561;48.888;8.736;2022-09-01T13:28:53;4.13;;;3.03;;
34521;SDS011;25561;48.888;8.736;2022-09-01T13:31:54;6.32;;;2.90;;
34521;SDS011;25561;48.888;8.736;2022-09-01T13:35:19;4.78;;;2.78;;
34521;SDS011;25561;48.888;8.736;2022-09-01T13:38:22;7.53;;;2.88;;
34521;SDS011;25561;48.888;8.736;2022-09-01T13:41:24;4.28;;;2.83;;
34521;SDS011;25561;48.888;8.736;2022-09-01T13:44:26;2.58;;;2.33;;
34521;SDS011;25561;48.888;8.736;2022-09-01T13:47:28;4.15;;;2.95;;
34521;SDS011;25561;48.888;8.736;2022-09-01T13:50:31;11.95;;;3.45;;
34521;SDS011;25561;48.888;8.736;2022-09-01T13:53:52;3.85;;;2.88;;
34521;SDS011;25561;48.888;8.736;2022-09-01T13:56:54;3.35;;;2.90;;
34521;SDS011;25561;48.888;8.736;2022-09-01T13:59:56;4.70;;;3.40;;
34521;SDS011;25561;48.888;8.736;2022-09-01T14:02:59;4.15;;;2.92;;
34521;SDS011;25561;48.888;8.736;2022-09-01T14:06:05;4.85;;;3.13;;
34521;SDS011;25561;48.888;8.736;2022-09-01T14:09:07;4.30;;;2.80;;
34521;SDS011;25561;48.888;8.736;2022-09-01T14:12:08;5.13;;;3.03;;
34521;SDS011;25561;48.888;8.736;2022-09-01T14:15:11;4.68;;;2.78;;
34521;SDS011;25561;48.888;8.736;2022-09-01T14:18:18;5.38;;;2.20;;
34521;SDS011;25561;48.888;8.736;2022-09-01T14:21:22;3.80;;;2.70;;
34521;SDS011;25561;48.888;8.736;2022-09-01T14:24:23;5.50;;;2.90;;
34521;SDS011;25561;48.888;8.736;2022-09-01T14:27:27;4.15;;;2.88;;
34521;SDS011;25561;48.888;8.736;2022-09-01T14:30:30;5.20;;;3.10;;
34521;SDS011;25561;48.888;8.736;2022-09-01T14:33:33;3.65;;;2.97;;
34521;SDS011;25561;48.888;8.736;2022-09-01T14:36:35;4.90;;;3.53;;
34521;SDS011;25561;48.888;8.736;2022-09-01T14:39:38;4.13;;;3.63;;
34521;SDS011;25561;48.888;8.736;2022-09-01T14:42:41;4.68;;;3.03;;
34521;SDS011;25561;48.888;8.736;2022-09-01T14:45:44;8.57;;;3.40;;
34521;SDS011;25561;48.888;8.736;2022-09-01T14:48:47;5.68;;;3.72;;
34521;SDS011;25561;48.888;8.736;2022-09-01T14:51:49;4.63;;;3.15;;
34521;SDS011;25561;48.888;8.736;2022-09-01T14:55:11;6.97;;;3.50;;
34521;SDS011;25561;48.888;8.736;2022-09-01T14:58:13;6.50;;;3.38;;
34521;SDS011;25561;48.888;8.736;2022-09-01T15:01:16;7.80;;;3.70;;
34521;SDS011;25561;48.888;8.736;2022-09-01T15:04:35;4.75;;;3.22;;
34521;SDS011;25561;48.888;8.736;2022-09-01T15:07:37;5.38;;;3.28;;
34521;SDS011;25561;48.888;8.736;2022-09-01T15:10:39;7.20;;;3.28;;
34521;SDS011;25561;48.888;8.736;2022-09-01T15:13:41;5.00;;;3.00;;
34521;SDS011;25561;48.888;8.736;2022-09-01T15:16:45;4.97;;;3.00;;
34521;SDS011;25561;48.888;8.736;2022-09-01T15:19:47;4.93;;;3.13;;
34521;SDS011;25561;48.888;8.736;2022-09-01T15:22:49;4.95;;;3.25;;
34521;SDS011;25561;48.888;8.736;2022-09-01T15:25:52;6.60;;;3.30;;
34521;SDS011;25561;48.888;8.736;2022-09-01T15:28:55;4.05;;;3.50;;
34521;SDS011;25561;48.888;8.736;2022-09-01T15:31:57;2.97;;;2.47;;
34521;SDS011;25561;48.888;8.736;2022-09-01T15:34:59;5.68;;;3.10;;
34521;SDS011;25561;48.888;8.736;2022-09-01T15:38:01;4.47;;;2.92;;
34521;SDS011;25561;48.888;8.736;2022-09-01T15:41:03;3.30;;;2.97;;
34521;SDS011;25561;48.888;8.736;2022-09-01T15:44:05;4.35;;;2.92;;
34521;SDS011;25561;48.888;8.736;2022-09-01T15:47:08;3.58;;;2.70;;
34521;SDS011;25561;48.888;8.736;2022-09-01T15:50:11;2.97;;;2.63;;
34521;SDS011;25561;48.888;8.736;2022-09-01T15:53:22;4.57;;;3.25;;
34521;SDS011;25561;48.888;8.736;2022-09-01T15:56:24;5.43;;;3.13;;
34521;SDS011;25561;48.888;8.736;2022-09-01T15:59:26;4.03;;;2.70;;
